Time;durP1;ratioP1;P1;durP2;ratioP2;P2;SDS_P1;SDS_P2;PMS_P1;PMS_P2;Temp;Humidity;BMP_temperature;BMP_pressure;BME280_temperature;BME280_humidity;BME280_pressure;Samples;Min_cycle;Max_cycle;Signal;HPM_P1;HPM_P2
2022/05/26 00:00:17;;;;;;;;;;;;;;;14.10;68.25;93286.69;2055309;70;20105;-69
2022/05/26 00:02:42;;;;;;;;;;;;;;;13.94;69.36;93278.03;2055323;70;20058;-69
2022/05/26 00:05:08;;;;;;;;;;;;;;;13.98;69.84;93280.34;2054829;70;20058;-69
2022/05/26 00:07:33;;;;;;;;;;;;;;;13.92;70.42;93286.38;2068427;69;20051;-70
2022/05/26 00:09:59;;;;;;;;;;;;;;;13.97;69.52;93273.97;2055306;69;20051;-70
2022/05/26 00:12:25;;;;;;;;;;;;;;;13.93;69.76;93281.47;2055228;70;20546;-70
2022/05/26 00:14:51;;;;;;;;;;;;;;;13.71;70.97;93281.66;2055291;70;20061;-70
2022/05/26 00:20:45;;;;;;;;;;;;;;;13.77;69.56;93283.38;2054583;69;20146;-70
2022/05/26 00:23:11;;;;;;;;;;;;;;;13.79;69.89;93277.81;2055531;69;20149;-70
2022/05/26 00:25:36;;;;;;;;;;;;;;;13.64;70.35;93284.75;2055687;69;20157;-71
2022/05/26 00:28:02;;;;;;;;;;;;;;;13.63;70.20;93284.00;2055769;70;20575;-70
2022/05/26 00:30:27;;;;;;;;;;;;;;;13.69;69.68;93289.28;2055695;70;20055;-70
2022/05/26 00:32:52;;;;;;;;;;;;;;;13.61;70.17;93291.66;2055752;70;20065;-70
2022/05/26 00:35:18;;;;;;;;;;;;;;;13.62;70.20;93295.94;2055468;70;20058;-70
2022/05/26 00:37:43;;;;;;;;;;;;;;;13.51;70.46;93300.25;2055717;69;20420;-71
2022/05/26 00:40:10;;;;;;;;;;;;;;;13.54;71.19;93296.19;2055691;69;20047;-70
2022/05/26 00:42:36;;;;;;;;;;;;;;;13.53;70.40;93294.72;2055757;70;20074;-70
2022/05/26 00:45:02;;;;;;;;;;;;;;;13.56;69.97;93302.00;2055678;70;20065;-70
2022/05/26 00:47:29;;;;;;;;;;;;;;;13.59;69.82;93308.50;2055842;70;20062;-70
2022/05/26 00:50:12;;;;;;;;;;;;;;;13.30;71.47;93301.13;2055695;70;20069;-71
2022/05/26 00:56:09;;;;;;;;;;;;;;;13.38;70.33;93298.81;2055760;69;20073;-71
2022/05/26 01:02:04;;;;;;;;;;;;;;;13.34;70.03;93307.03;2055670;69;20053;-70
2022/05/26 01:04:34;;;;;;;;;;;;;;;13.24;70.88;93303.59;2055759;69;20054;-70
2022/05/26 01:07:23;;;;;;;;;;;;;;;13.20;71.04;93306.16;2055687;70;20050;-71
2022/05/26 01:09:48;;;;;;;;;;;;;;;13.17;71.35;93304.56;2056017;69;20142;-71
2022/05/26 01:12:14;;;;;;;;;;;;;;;13.21;70.61;93299.88;2055649;70;20057;-71
2022/05/26 01:14:50;;;;;;;;;;;;;;;12.71;73.37;93294.69;2055545;70;20061;-70
2022/05/26 01:17:24;;;;;;;;;;;;;;;12.59;74.05;93288.25;2055618;70;20050;-70
2022/05/26 01:20:08;;;;;;;;;;;;;;;12.82;71.80;93290.38;2055526;70;20050;-71
2022/05/26 01:26:11;;;;;;;;;;;;;;;12.78;71.91;93284.47;2055719;69;20165;-70
2022/05/26 01:28:56;;;;;;;;;;;;;;;12.85;71.23;93281.44;2055632;70;20078;-71
2022/05/26 01:31:33;;;;;;;;;;;;;;;12.89;71.45;93289.44;2068650;69;20062;-72
2022/05/26 01:33:59;;;;;;;;;;;;;;;12.81;72.09;93300.22;2055282;70;20061;-73
2022/05/26 01:36:43;;;;;;;;;;;;;;;12.95;70.62;93301.09;2055478;70;20399;-72
2022/05/26 01:39:15;;;;;;;;;;;;;;;12.98;70.83;93297.78;2055810;70;20054;-72
2022/05/26 01:42:01;;;;;;;;;;;;;;;12.96;71.42;93308.22;2055614;70;20049;-72
2022/05/26 01:44:45;;;;;;;;;;;;;;;13.03;71.13;93306.50;2055684;70;20069;-71
2022/05/26 01:47:30;;;;;;;;;;;;;;;12.99;72.05;93301.34;2068570;69;20466;-72
2022/05/26 01:50:06;;;;;;;;;;;;;;;13.00;72.32;93304.91;2055572;70;20495;-71
2022/05/26 01:52:35;;;;;;;;;;;;;;;13.06;71.46;93305.28;2055624;70;20058;-72
2022/05/26 01:55:11;;;;;;;;;;;;;;;13.03;70.74;93312.16;2055391;70;20052;-72
2022/05/26 01:57:36;;;;;;;;;;;;;;;12.79;72.13;93314.22;2055770;70;20078;-71
2022/05/26 02:03:32;;;;;;;;;;;;;;;13.14;70.83;93317.06;2055611;69;20544;-71
2022/05/26 02:06:02;;;;;;;;;;;;;;;12.69;74.36;93305.84;2055447;69;20054;-71
2022/05/26 02:08:31;;;;;;;;;;;;;;;13.08;71.54;93311.78;2068617;69;20055;-71
2022/05/26 02:11:02;;;;;;;;;;;;;;;13.04;71.96;93297.41;2055549;69;20135;-71
2022/05/26 02:13:27;;;;;;;;;;;;;;;12.96;72.15;93299.72;2055762;70;20482;-71
2022/05/26 02:15:56;;;;;;;;;;;;;;;12.94;71.89;93294.72;2055599;70;20061;-72
2022/05/26 02:18:33;;;;;;;;;;;;;;;12.78;72.86;93290.88;2055452;70;20066;-72
2022/05/26 02:21:03;;;;;;;;;;;;;;;12.97;72.33;93293.50;2055281;69;20062;-72
2022/05/26 02:23:34;;;;;;;;;;;;;;;13.11;71.88;93293.63;2055541;69;20054;-72
2022/05/26 02:26:01;;;;;;;;;;;;;;;13.12;71.54;93289.44;2055726;70;20541;-71
2022/05/26 02:28:26;;;;;;;;;;;;;;;13.18;71.41;93289.78;2055527;70;20078;-71
2022/05/26 02:30:53;;;;;;;;;;;;;;;13.08;71.75;93297.66;2055773;70;20467;-71
2022/05/26 02:33:18;;;;;;;;;;;;;;;13.20;70.43;93287.09;2055569;70;20038;-71
2022/05/26 02:35:46;;;;;;;;;;;;;;;13.11;71.43;93293.63;2055636;70;20500;-72
2022/05/26 02:38:14;;;;;;;;;;;;;;;13.11;71.06;93295.72;2068656;69;20145;-71
2022/05/26 02:40:40;;;;;;;;;;;;;;;13.15;70.71;93290.31;2055757;70;20046;-71
2022/05/26 02:43:11;;;;;;;;;;;;;;;13.11;70.83;93287.97;2055624;70;20451;-71
2022/05/26 02:45:42;;;;;;;;;;;;;;;13.12;71.05;93292.25;2055690;69;20062;-73
2022/05/26 02:48:07;;;;;;;;;;;;;;;13.16;70.64;93291.78;2055540;70;20054;-73
2022/05/26 02:54:01;;;;;;;;;;;;;;;13.14;72.30;93295.19;2055706;69;20189;-71
2022/05/26 02:56:41;;;;;;;;;;;;;;;13.15;72.06;93296.69;2068761;69;20541;-72
2022/05/26 02:59:12;;;;;;;;;;;;;;;13.19;71.83;93302.59;2055738;69;20131;-71
2022/05/26 03:01:41;;;;;;;;;;;;;;;13.11;72.75;93299.28;2055632;70;20058;-71
2022/05/26 03:04:11;;;;;;;;;;;;;;;13.19;71.43;93301.84;2055514;69;20155;-71
2022/05/26 03:06:47;;;;;;;;;;;;;;;13.20;71.03;93303.34;2055696;69;20066;-72
2022/05/26 03:09:13;;;;;;;;;;;;;;;13.20;71.98;93304.06;2055405;69;20054;-72
2022/05/26 03:11:47;;;;;;;;;;;;;;;13.15;72.52;93298.78;2055528;70;20563;-74
2022/05/26 03:14:13;;;;;;;;;;;;;;;13.18;72.78;93300.38;2055587;69;20054;-73
2022/05/26 03:16:40;;;;;;;;;;;;;;;13.18;71.93;93309.59;2055545;70;20055;-73
2022/05/26 03:19:05;;;;;;;;;;;;;;;13.26;72.14;93314.28;2055508;70;20146;-73
2022/05/26 03:21:31;;;;;;;;;;;;;;;12.95;72.51;93307.47;2055626;69;20145;-72
2022/05/26 03:23:56;;;;;;;;;;;;;;;13.17;72.37;93310.19;2068720;69;20109;-71
2022/05/26 03:26:21;;;;;;;;;;;;;;;13.25;72.14;93315.66;2068769;69;20089;-71
2022/05/26 03:28:48;;;;;;;;;;;;;;;13.11;72.68;93316.22;2055509;70;20076;-72
2022/05/26 03:31:13;;;;;;;;;;;;;;;12.80;74.26;93313.63;2055525;70;20471;-71
2022/05/26 03:41:51;;;;;;;;;;;;;;;13.11;73.47;93318.31;2055665;70;20054;-72
2022/05/26 03:44:17;;;;;;;;;;;;;;;13.16;72.40;93334.19;2055625;70;20422;-71
2022/05/26 03:46:42;;;;;;;;;;;;;;;13.21;72.53;93327.41;2068477;69;20140;-72
2022/05/26 03:49:08;;;;;;;;;;;;;;;13.18;72.75;93328.63;2055392;70;20068;-71
2022/05/26 03:51:33;;;;;;;;;;;;;;;13.25;72.06;93330.53;2055460;69;20058;-72
2022/05/26 03:53:59;;;;;;;;;;;;;;;13.35;70.83;93331.13;2055220;70;20491;-72
2022/05/26 03:56:24;;;;;;;;;;;;;;;13.32;72.31;93328.78;2055685;70;20050;-72
2022/05/26 03:58:50;;;;;;;;;;;;;;;13.31;72.54;93342.19;2055962;70;20066;-71
2022/05/26 04:01:15;;;;;;;;;;;;;;;13.32;72.80;93332.34;2068925;69;20054;-73
2022/05/26 04:03:40;;;;;;;;;;;;;;;13.30;72.44;93340.72;2055886;70;20054;-73
2022/05/26 04:06:06;;;;;;;;;;;;;;;12.93;74.87;93337.72;2055923;70;20070;-72
2022/05/26 04:08:31;;;;;;;;;;;;;;;12.72;76.57;93336.44;2055924;70;20058;-71
2022/05/26 04:10:57;;;;;;;;;;;;;;;13.10;73.21;93345.84;2056086;70;20086;-71
2022/05/26 04:13:23;;;;;;;;;;;;;;;13.27;73.47;93335.56;2055942;70;20418;-71
2022/05/26 04:15:48;;;;;;;;;;;;;;;13.30;73.03;93337.91;2055977;70;20141;-72
2022/05/26 04:18:13;;;;;;;;;;;;;;;13.32;73.25;93338.00;2055849;70;20505;-71
2022/05/26 04:20:39;;;;;;;;;;;;;;;13.33;73.03;93339.50;2068953;69;20058;-71
2022/05/26 04:23:05;;;;;;;;;;;;;;;13.41;72.42;93339.97;2055893;69;20111;-72
2022/05/26 04:25:30;;;;;;;;;;;;;;;13.33;72.93;93348.00;2056076;70;20054;-71
2022/05/26 04:27:55;;;;;;;;;;;;;;;13.30;72.14;93357.69;2068884;69;20050;-72
2022/05/26 04:30:22;;;;;;;;;;;;;;;13.43;71.90;93354.25;2055934;69;20042;-72
2022/05/26 04:32:48;;;;;;;;;;;;;;;13.49;71.72;93356.72;2055844;69;20053;-73
2022/05/26 04:35:13;;;;;;;;;;;;;;;13.54;72.15;93360.53;2055792;70;20070;-72
2022/05/26 04:37:39;;;;;;;;;;;;;;;13.59;71.71;93365.78;2056038;70;20092;-72
2022/05/26 04:40:04;;;;;;;;;;;;;;;13.58;72.53;93378.47;2055907;70;20053;-71
2022/05/26 04:42:30;;;;;;;;;;;;;;;13.59;72.78;93368.63;2068893;69;20043;-71
2022/05/26 04:48:24;;;;;;;;;;;;;;;13.69;71.28;93379.81;2055868;69;20146;-73
2022/05/26 04:50:50;;;;;;;;;;;;;;;13.70;71.89;93381.31;2068922;69;20157;-72
2022/05/26 04:53:16;;;;;;;;;;;;;;;13.67;71.14;93377.59;2055845;70;20421;-72
2022/05/26 04:55:41;;;;;;;;;;;;;;;13.67;70.94;93374.03;2068531;69;20056;-72
2022/05/26 04:58:07;;;;;;;;;;;;;;;13.76;71.02;93381.66;2055882;70;20069;-72
2022/05/26 05:00:32;;;;;;;;;;;;;;;13.82;71.11;93375.63;2055828;70;20131;-72
2022/05/26 05:02:58;;;;;;;;;;;;;;;13.84;72.08;93378.59;2055894;70;20064;-72
2022/05/26 05:05:23;;;;;;;;;;;;;;;13.78;71.48;93381.03;2068825;69;20086;-72
2022/05/26 05:07:49;;;;;;;;;;;;;;;13.37;74.41;93384.97;2055686;70;20131;-71
2022/05/26 05:10:14;;;;;;;;;;;;;;;13.31;75.88;93389.53;2068837;69;20053;-71
2022/05/26 05:12:40;;;;;;;;;;;;;;;13.75;72.43;93400.00;2068816;69;20042;-71
2022/05/26 05:15:10;;;;;;;;;;;;;;;13.68;72.75;93398.16;2055946;70;20046;-73
2022/05/26 05:17:36;;;;;;;;;;;;;;;13.80;73.10;93401.00;2055840;69;20054;-74
2022/05/26 05:20:01;;;;;;;;;;;;;;;13.85;72.50;93397.78;2055750;70;20054;-74
2022/05/26 05:22:43;;;;;;;;;;;;;;;13.95;71.40;93398.38;2055768;69;20076;-73
2022/05/26 05:25:15;;;;;;;;;;;;;;;13.94;72.14;93405.41;2055799;70;20046;-73
2022/05/26 05:27:43;;;;;;;;;;;;;;;13.97;71.32;93406.25;2055776;70;20064;-73
2022/05/26 05:30:16;;;;;;;;;;;;;;;13.88;72.02;93407.88;2055775;69;20050;-74
2022/05/26 05:32:45;;;;;;;;;;;;;;;14.09;68.56;93404.13;2055879;70;20428;-74
2022/05/26 05:35:12;;;;;;;;;;;;;;;14.12;72.05;93405.00;2055723;70;20057;-73
2022/05/26 05:37:38;;;;;;;;;;;;;;;14.04;72.10;93401.69;2055836;70;20113;-73
2022/05/26 05:40:04;;;;;;;;;;;;;;;14.17;70.36;93410.28;2055786;70;20090;-73
2022/05/26 05:42:29;;;;;;;;;;;;;;;14.25;70.36;93410.03;2055827;70;20115;-74
2022/05/26 05:44:56;;;;;;;;;;;;;;;14.32;69.96;93408.28;2055855;70;20046;-72
2022/05/26 05:47:22;;;;;;;;;;;;;;;14.44;69.97;93418.22;2055750;70;20123;-72
2022/05/26 05:49:47;;;;;;;;;;;;;;;14.47;70.14;93416.22;2055678;69;20047;-73
2022/05/26 05:52:16;;;;;;;;;;;;;;;14.46;69.13;93418.34;2055758;69;20054;-73
2022/05/26 05:54:42;;;;;;;;;;;;;;;14.52;68.23;93422.91;2055868;69;20069;-72
2022/05/26 05:57:07;;;;;;;;;;;;;;;14.61;68.05;93427.66;2055937;70;20478;-74
2022/05/26 05:59:33;;;;;;;;;;;;;;;14.67;69.02;93425.94;2055348;70;20058;-73
2022/05/26 06:01:58;;;;;;;;;;;;;;;14.71;69.19;93423.34;2068637;69;20172;-74
2022/05/26 06:04:24;;;;;;;;;;;;;;;14.75;68.95;93417.16;2068653;69;20077;-74
2022/05/26 06:06:50;;;;;;;;;;;;;;;14.84;65.84;93421.19;2055707;70;20058;-74
2022/05/26 06:09:18;;;;;;;;;;;;;;;14.93;67.61;93409.66;2055704;70;20047;-74
2022/05/26 06:11:44;;;;;;;;;;;;;;;14.47;70.55;93411.31;2055744;70;20409;-74
2022/05/26 06:14:10;;;;;;;;;;;;;;;14.62;70.49;93409.34;2055581;70;20054;-74
2022/05/26 06:16:36;;;;;;;;;;;;;;;15.06;68.98;93416.75;2068598;69;20064;-74
2022/05/26 06:19:02;;;;;;;;;;;;;;;15.25;68.26;93407.16;2055297;70;20046;-73
2022/05/26 06:21:27;;;;;;;;;;;;;;;15.27;67.97;93415.78;2055589;69;20078;-73
2022/05/26 06:23:56;;;;;;;;;;;;;;;15.43;68.10;93413.81;2055662;69;20498;-72
2022/05/26 06:26:28;;;;;;;;;;;;;;;15.54;65.61;93422.91;2055587;70;20055;-73
2022/05/26 06:31:38;;;;;;;;;;;;;;;15.65;66.79;93419.25;2055583;70;20138;-72
2022/05/26 06:39:31;;;;;;;;;;;;;;;15.71;66.26;93408.22;2055127;70;20452;-72
2022/05/26 06:42:06;;;;;;;;;;;;;;;15.77;63.82;93419.91;2068518;69;20070;-72
2022/05/26 06:44:34;;;;;;;;;;;;;;;15.52;67.62;93427.09;2055649;69;20054;-72
2022/05/26 06:46:59;;;;;;;;;;;;;;;14.99;69.50;93427.03;2055806;70;20065;-73
2022/05/26 06:49:24;;;;;;;;;;;;;;;15.23;68.99;93421.97;2055558;70;20054;-72
2022/05/26 06:51:50;;;;;;;;;;;;;;;15.29;69.38;93418.72;2055584;70;20058;-73
2022/05/26 06:54:15;;;;;;;;;;;;;;;15.71;67.15;93413.91;2068631;69;20057;-75
2022/05/26 06:56:41;;;;;;;;;;;;;;;15.63;68.92;93408.53;2068601;69;20047;-71
2022/05/26 06:59:06;;;;;;;;;;;;;;;15.51;67.75;93414.28;2055644;70;20070;-71
2022/05/26 07:01:32;;;;;;;;;;;;;;;15.19;69.51;93416.06;2055594;70;20085;-70
2022/05/26 07:03:58;;;;;;;;;;;;;;;15.64;67.73;93417.78;2055546;69;20055;-72
2022/05/26 07:06:25;;;;;;;;;;;;;;;15.83;66.57;93413.81;2055662;70;20121;-71
2022/05/26 07:08:50;;;;;;;;;;;;;;;16.06;66.54;93405.09;2068508;69;20058;-71
2022/05/26 07:11:16;;;;;;;;;;;;;;;16.23;66.37;93413.09;2068446;69;20123;-71
2022/05/26 07:13:42;;;;;;;;;;;;;;;16.00;65.59;93414.03;2055298;70;20057;-71
2022/05/26 07:16:09;;;;;;;;;;;;;;;16.10;65.07;93404.56;2055212;70;20153;-73
2022/05/26 07:18:35;;;;;;;;;;;;;;;16.40;66.09;93408.97;2055304;70;20050;-72
2022/05/26 07:21:05;;;;;;;;;;;;;;;16.47;65.54;93412.84;2055381;70;20403;-71
2022/05/26 07:23:32;;;;;;;;;;;;;;;16.36;63.68;93408.78;2055465;69;20137;-71
2022/05/26 07:25:58;;;;;;;;;;;;;;;16.22;63.43;93397.41;2055527;70;20201;-72
2022/05/26 07:28:24;;;;;;;;;;;;;;;16.22;63.13;93405.22;2055380;70;20058;-71
2022/05/26 07:30:52;;;;;;;;;;;;;;;16.30;62.48;93402.03;2055985;69;20137;-71
2022/05/26 07:33:18;;;;;;;;;;;;;;;16.27;61.26;93404.03;2056390;70;20504;-70
2022/05/26 07:35:43;;;;;;;;;;;;;;;16.60;62.42;93395.03;2056404;70;20053;-72
2022/05/26 07:43:52;;;;;;;;;;;;;;;17.01;62.26;93397.78;2065460;69;20050;-73
2022/05/26 07:46:17;;;;;;;;;;;;;;;17.16;61.48;93390.66;2056400;70;20077;-74
2022/05/26 07:48:43;;;;;;;;;;;;;;;17.23;59.78;93388.84;2056330;70;20046;-72
2022/05/26 07:51:08;;;;;;;;;;;;;;;17.28;59.08;93385.53;2056453;70;20592;-74
2022/05/26 07:53:34;;;;;;;;;;;;;;;17.57;59.95;93386.13;2056394;70;20046;-73
2022/05/26 07:56:01;;;;;;;;;;;;;;;17.77;58.46;93384.22;2056014;70;20145;-76
2022/05/26 07:58:27;;;;;;;;;;;;;;;18.07;56.53;93378.41;2056343;70;20426;-74
2022/05/26 08:00:54;;;;;;;;;;;;;;;17.70;57.17;93380.34;2056236;69;20098;-73
2022/05/26 08:03:20;;;;;;;;;;;;;;;18.27;57.73;93382.13;2069258;69;20135;-73
2022/05/26 08:05:47;;;;;;;;;;;;;;;18.72;56.20;93386.91;2056586;69;20513;-74
2022/05/26 08:08:12;;;;;;;;;;;;;;;19.16;56.46;93378.69;2056305;70;20470;-72
2022/05/26 08:10:43;;;;;;;;;;;;;;;19.64;56.60;93381.97;2056335;70;20061;-73
2022/05/26 08:13:09;;;;;;;;;;;;;;;20.18;54.06;93385.41;2056380;70;20065;-74
2022/05/26 08:15:34;;;;;;;;;;;;;;;20.21;50.43;93386.97;2056310;70;20054;-73
2022/05/26 08:18:01;;;;;;;;;;;;;;;20.20;50.02;93382.59;2056169;70;20053;-74
2022/05/26 08:20:26;;;;;;;;;;;;;;;20.76;52.86;93386.75;2056035;69;20046;-74
2022/05/26 08:22:52;;;;;;;;;;;;;;;21.24;48.59;93386.16;2069206;69;20053;-74
2022/05/26 08:25:18;;;;;;;;;;;;;;;21.50;49.50;93384.16;2056416;69;20514;-74
2022/05/26 08:27:44;;;;;;;;;;;;;;;21.62;50.22;93391.66;2056437;69;20097;-75
2022/05/26 08:30:09;;;;;;;;;;;;;;;21.82;48.24;93390.13;2056442;70;20054;-75
2022/05/26 08:32:36;;;;;;;;;;;;;;;22.55;46.40;93397.25;2056180;70;20077;-72
2022/05/26 08:35:06;;;;;;;;;;;;;;;22.67;45.89;93396.84;2056280;69;20470;-72
2022/05/26 08:37:32;;;;;;;;;;;;;;;22.30;43.80;93397.97;2056569;70;20483;-73
2022/05/26 08:39:58;;;;;;;;;;;;;;;22.76;42.06;93400.66;2056459;69;20046;-74
2022/05/26 08:42:25;;;;;;;;;;;;;;;23.09;44.48;93393.63;2055968;69;20144;-73
2022/05/26 08:44:55;;;;;;;;;;;;;;;23.65;44.09;93393.59;2055885;70;20077;-73
2022/05/26 08:47:21;;;;;;;;;;;;;;;23.10;43.98;93382.91;2055851;70;20065;-73
2022/05/26 08:49:57;;;;;;;;;;;;;;;23.40;44.29;93385.78;2055792;69;20196;-74
2022/05/26 08:52:42;;;;;;;;;;;;;;;23.37;42.02;93385.00;2055851;70;20051;-74
2022/05/26 08:55:15;;;;;;;;;;;;;;;23.12;44.33;93382.94;2068558;69;20109;-75
2022/05/26 08:57:43;;;;;;;;;;;;;;;23.44;44.37;93380.84;2055835;70;20137;-74
2022/05/26 09:00:13;;;;;;;;;;;;;;;23.31;44.50;93384.84;2055836;69;20050;-74
2022/05/26 09:02:39;;;;;;;;;;;;;;;23.43;44.28;93378.66;2055857;69;20058;-74
2022/05/26 09:05:13;;;;;;;;;;;;;;;23.65;44.58;93378.50;2055803;70;20145;-73
2022/05/26 09:13:14;;;;;;;;;;;;;;;22.91;39.93;93370.19;2056218;70;20513;-73
2022/05/26 09:15:40;;;;;;;;;;;;;;;23.30;41.99;93366.16;2056028;70;20046;-73
2022/05/26 09:18:19;;;;;;;;;;;;;;;23.75;39.86;93361.47;2055699;70;20145;-73
2022/05/26 09:20:46;;;;;;;;;;;;;;;24.43;42.71;93367.22;2055827;69;20486;-73
2022/05/26 09:23:22;;;;;;;;;;;;;;;24.77;41.89;93364.25;2068794;69;20438;-74
2022/05/26 09:25:50;;;;;;;;;;;;;;;25.28;42.21;93364.44;2055630;69;20077;-74
2022/05/26 09:28:34;;;;;;;;;;;;;;;24.22;37.79;93359.56;2055676;69;20078;-77
2022/05/26 09:31:16;;;;;;;;;;;;;;;24.41;38.13;93352.78;2055779;70;20085;-74
2022/05/26 09:33:42;;;;;;;;;;;;;;;24.59;40.40;93346.66;2055832;70;20094;-75
2022/05/26 09:36:24;;;;;;;;;;;;;;;24.94;39.96;93348.00;2055703;70;20137;-74
2022/05/26 09:38:49;;;;;;;;;;;;;;;25.18;38.94;93347.72;2055822;69;20426;-77
2022/05/26 09:41:16;;;;;;;;;;;;;;;25.33;37.42;93342.91;2055456;70;20494;-73
2022/05/26 09:44:00;;;;;;;;;;;;;;;25.76;36.69;93334.94;2055819;69;20169;-72
2022/05/26 09:46:26;;;;;;;;;;;;;;;25.96;36.56;93340.97;2055875;70;20068;-72
2022/05/26 09:48:54;;;;;;;;;;;;;;;25.89;36.62;93342.31;2068751;69;20141;-72
2022/05/26 09:51:24;;;;;;;;;;;;;;;25.70;36.67;93341.28;2055741;70;20508;-72
2022/05/26 09:53:51;;;;;;;;;;;;;;;26.05;36.59;93333.16;2055782;70;20146;-72
2022/05/26 09:56:26;;;;;;;;;;;;;;;26.50;34.95;93328.66;2068719;69;20193;-73
2022/05/26 10:02:23;;;;;;;;;;;;;;;26.56;34.52;93322.94;2055413;69;20096;-72
2022/05/26 10:05:01;;;;;;;;;;;;;;;26.40;35.30;93327.81;2068662;69;20058;-72
2022/05/26 10:07:40;;;;;;;;;;;;;;;27.64;34.96;93319.59;2068667;69;20058;-72
2022/05/26 10:10:27;;;;;;;;;;;;;;;28.16;35.04;93324.22;2055826;70;20054;-72
2022/05/26 10:13:10;;;;;;;;;;;;;;;28.41;30.95;93320.03;2055771;70;20062;-73
2022/05/26 10:15:36;;;;;;;;;;;;;;;27.64;33.51;93313.81;2055714;69;20054;-72
2022/05/26 10:18:07;;;;;;;;;;;;;;;28.70;32.94;93308.53;2055705;70;20575;-72
2022/05/26 10:20:46;;;;;;;;;;;;;;;29.18;32.20;93316.59;2055393;70;20085;-71
2022/05/26 10:23:30;;;;;;;;;;;;;;;29.33;30.31;93312.25;2055596;69;20053;-72
2022/05/26 10:26:01;;;;;;;;;;;;;;;28.86;30.63;93308.53;2055819;69;20054;-72
2022/05/26 10:28:46;;;;;;;;;;;;;;;28.34;29.76;93316.38;2055690;70;20181;-71
2022/05/26 10:31:18;;;;;;;;;;;;;;;29.29;29.86;93315.16;2055729;70;20495;-72
2022/05/26 10:33:44;;;;;;;;;;;;;;;30.74;29.33;93308.28;2055566;70;20054;-72
2022/05/26 10:36:12;;;;;;;;;;;;;;;29.95;27.92;93303.50;2053326;69;20078;-71
2022/05/26 10:38:38;;;;;;;;;;;;;;;28.83;26.69;93295.53;2049080;70;20451;-72
2022/05/26 10:41:26;;;;;;;;;;;;;;;31.17;27.06;93305.84;2048236;70;20063;-72
2022/05/26 10:43:58;;;;;;;;;;;;;;;32.01;26.75;93302.25;2047058;70;20055;-73
2022/05/26 10:46:26;;;;;;;;;;;;;;;31.85;26.25;93292.22;2048953;70;20050;-72
2022/05/26 10:49:10;;;;;;;;;;;;;;;32.92;26.02;93303.34;2048883;70;20054;-73
2022/05/26 10:51:35;;;;;;;;;;;;;;;34.01;25.04;93303.09;2049115;70;20051;-72
2022/05/26 10:54:07;;;;;;;;;;;;;;;34.77;24.11;93298.69;2048964;70;20058;-72
2022/05/26 10:56:36;;;;;;;;;;;;;;;35.53;22.65;93297.75;2048302;70;20138;-73
2022/05/26 10:59:11;;;;;;;;;;;;;;;35.55;22.50;93300.63;2048998;70;20117;-72
2022/05/26 11:01:40;;;;;;;;;;;;;;;37.35;20.12;93291.28;2048964;70;20062;-73
2022/05/26 11:04:17;;;;;;;;;;;;;;;40.37;19.16;93291.16;2048875;70;20484;-72
2022/05/26 11:06:45;;;;;;;;;;;;;;;38.22;18.97;93280.38;2048979;70;20062;-73
2022/05/26 11:09:10;;;;;;;;;;;;;;;39.10;18.17;93281.53;2048871;70;20133;-73
2022/05/26 11:17:55;;;;;;;;;;;;;;;43.85;15.34;93275.97;2048834;70;20501;-73
2022/05/26 11:20:23;;;;;;;;;;;;;;;43.48;15.35;93270.69;2048898;70;20466;-72
2022/05/26 11:22:51;;;;;;;;;;;;;;;43.86;14.89;93277.41;2048873;70;20046;-72
2022/05/26 11:25:23;;;;;;;;;;;;;;;43.63;15.54;93262.41;2048909;70;20063;-71
2022/05/26 11:27:52;;;;;;;;;;;;;;;45.94;13.39;93269.16;2048964;70;20055;-71
2022/05/26 11:36:09;;;;;;;;;;;;;;;47.49;13.54;93253.22;2052229;70;20593;-71
2022/05/26 11:38:38;;;;;;;;;;;;;;;44.63;13.70;93242.47;2054493;70;20198;-70
2022/05/26 11:41:06;;;;;;;;;;;;;;;47.34;12.96;93240.94;2054882;70;20552;-73
2022/05/26 11:43:56;;;;;;;;;;;;;;;46.25;12.64;93241.75;2054822;70;20054;-71
2022/05/26 11:46:40;;;;;;;;;;;;;;;49.87;11.91;93247.69;2054422;70;20050;-72
2022/05/26 11:49:07;;;;;;;;;;;;;;;48.54;11.32;93237.25;2054939;70;20050;-72
2022/05/26 11:51:41;;;;;;;;;;;;;;;46.52;13.43;93222.81;2055410;70;20054;-73
2022/05/26 11:54:30;;;;;;;;;;;;;;;47.47;12.13;93214.63;2067751;69;20123;-73
2022/05/26 11:56:56;;;;;;;;;;;;;;;47.78;12.10;93219.06;2054744;69;20557;-71
2022/05/26 11:59:32;;;;;;;;;;;;;;;49.65;11.33;93215.03;2055381;70;20054;-71
2022/05/26 12:02:00;;;;;;;;;;;;;;;49.36;12.47;93210.66;2055318;70;20089;-71
2022/05/26 12:04:26;;;;;;;;;;;;;;;49.89;12.20;93221.28;2054718;70;20093;-71
2022/05/26 12:06:52;;;;;;;;;;;;;;;48.26;11.28;93219.25;2054744;70;20141;-72
2022/05/26 12:09:27;;;;;;;;;;;;;;;47.68;12.47;93204.91;2054464;70;20231;-71
2022/05/26 12:12:28;;;;;;;;;;;;;;;50.08;11.11;93200.25;2054923;70;20145;-72
2022/05/26 12:14:56;;;;;;;;;;;;;;;49.33;12.08;93197.44;2054328;69;20062;-71
2022/05/26 12:17:31;;;;;;;;;;;;;;;50.39;11.32;93196.94;2055093;69;20058;-72
2022/05/26 12:19:58;;;;;;;;;;;;;;;46.17;12.09;93188.06;2054884;70;20046;-70
2022/05/26 12:22:31;;;;;;;;;;;;;;;47.36;12.25;93181.16;2055368;69;20046;-71
2022/05/26 12:28:31;;;;;;;;;;;;;;;49.90;11.05;93186.09;2055542;69;20081;-72
2022/05/26 12:30:56;;;;;;;;;;;;;;;44.11;14.11;93151.38;2068845;69;20050;-70
2022/05/26 12:33:40;;;;;;;;;;;;;;;38.42;17.40;93141.44;2055697;70;20048;-70
2022/05/26 12:36:16;;;;;;;;;;;;;;;38.73;19.31;93138.03;2068636;69;20058;-70
2022/05/26 12:39:00;;;;;;;;;;;;;;;36.56;20.73;93123.56;2055915;69;20061;-71
2022/05/26 12:41:38;;;;;;;;;;;;;;;36.97;20.87;93120.06;2055826;70;20042;-72
2022/05/26 12:44:22;;;;;;;;;;;;;;;36.15;22.01;93113.03;2055710;69;20054;-72
2022/05/26 12:46:50;;;;;;;;;;;;;;;36.27;22.51;93111.97;2055429;70;20180;-71
2022/05/26 12:49:33;;;;;;;;;;;;;;;35.76;21.62;93101.72;2055660;70;20117;-71
2022/05/26 12:52:17;;;;;;;;;;;;;;;34.34;24.67;93100.88;2055557;70;20057;-71
2022/05/26 12:55:02;;;;;;;;;;;;;;;33.39;23.20;93090.38;2055749;69;20058;-70
2022/05/26 12:57:30;;;;;;;;;;;;;;;33.32;23.94;93089.06;2055718;69;20070;-71
2022/05/26 13:00:14;;;;;;;;;;;;;;;32.71;25.30;93092.31;2055714;70;20046;-72
2022/05/26 13:02:40;;;;;;;;;;;;;;;32.10;24.03;93076.47;2068658;69;20047;-71
2022/05/26 13:05:08;;;;;;;;;;;;;;;32.11;25.27;93081.53;2055764;70;20115;-72
2022/05/26 13:07:34;;;;;;;;;;;;;;;31.10;26.22;93071.84;2055686;69;20165;-74
2022/05/26 13:09:59;;;;;;;;;;;;;;;30.13;26.65;93065.38;2055734;70;20096;-70
2022/05/26 13:12:25;;;;;;;;;;;;;;;29.82;27.47;93059.75;2055725;70;20081;-72
2022/05/26 13:14:54;;;;;;;;;;;;;;;30.29;27.34;93064.59;2055700;70;20060;-70
2022/05/26 13:17:23;;;;;;;;;;;;;;;30.35;27.76;93068.16;2068710;69;20054;-73
2022/05/26 13:19:49;;;;;;;;;;;;;;;29.83;28.38;93058.31;2055452;69;20073;-72
2022/05/26 13:22:35;;;;;;;;;;;;;;;29.84;28.97;93061.94;2055471;70;20054;-71
2022/05/26 13:25:05;;;;;;;;;;;;;;;29.06;27.94;93062.25;2055578;69;20563;-74
2022/05/26 13:27:46;;;;;;;;;;;;;;;28.18;28.51;93060.84;2055603;70;20140;-77
2022/05/26 13:33:09;;;;;;;;;;;;;;;27.88;30.15;93047.81;2055628;70;20058;-72
2022/05/26 13:35:39;;;;;;;;;;;;;;;27.85;29.78;93055.03;2055651;70;20047;-74
2022/05/26 13:38:17;;;;;;;;;;;;;;;28.51;30.40;93050.03;2055716;70;20142;-76
2022/05/26 13:40:43;;;;;;;;;;;;;;;28.73;30.96;93055.06;2055438;70;20051;-75
2022/05/26 13:43:10;;;;;;;;;;;;;;;28.48;30.91;93046.41;2055562;70;20513;-75
2022/05/26 13:45:36;;;;;;;;;;;;;;;28.76;31.17;93048.53;2055676;70;20087;-76
2022/05/26 13:48:20;;;;;;;;;;;;;;;28.18;30.35;93040.59;2055372;70;20123;-77
2022/05/26 13:50:49;;;;;;;;;;;;;;;28.18;29.97;93046.38;2055735;69;20115;-76
2022/05/26 13:53:15;;;;;;;;;;;;;;;28.49;32.13;93050.03;2055371;69;20054;-74
2022/05/26 13:55:44;;;;;;;;;;;;;;;28.11;31.25;93051.44;2068479;69;20053;-76
2022/05/26 13:58:10;;;;;;;;;;;;;;;27.26;32.38;93040.38;2055694;70;20046;-76
2022/05/26 14:04:04;;;;;;;;;;;;;;;28.18;31.75;93044.22;2055604;70;20426;-76
2022/05/26 14:10:19;;;;;;;;;;;;;;;27.40;32.25;93045.50;2055607;69;20084;-75
2022/05/26 14:12:47;;;;;;;;;;;;;;;27.25;32.08;93045.44;2055367;69;20153;-74
2022/05/26 14:15:12;;;;;;;;;;;;;;;27.68;32.66;93044.88;2055418;69;20057;-75
2022/05/26 14:17:40;;;;;;;;;;;;;;;26.35;32.49;93061.50;2055532;70;20446;-73
2022/05/26 14:20:25;;;;;;;;;;;;;;;27.31;32.88;93039.00;2055519;69;20058;-75